Aérodrome :
LOGIN :

S'inscrire | Disclaimer

   EN    FR    IT 

 










Légende :    VFR   VFR Marginal   IFR   IFR Intensif   IFR Très Intensif
Visi : 
Plafond : 
>= 8 km
>= 3000ft
5 à 8 km
1000 à 3000 ft
1500m à 5 km
500 à 1000 ft
800 à 1500m
200 à 500 ft
< 800m
< 200 ft
Symboles :   Orages  Brouillard  Fortes neiges  Fortes précipitations  Vent > 20 kt
SIGMETs :   Divers  Orages  Givrage  Turbulence  Onde Orograph.  Cendres Volcan.







- Altitude de l'aérodrome : 502 ft
- Code IATA : ORK


EICK - Cork

DERNIER METAR :
  • 261830Z 13007KT 0350 R17/1400D R35/0600D -DZ FG OVC001 14/14 Q1010 TEMPO 0300

METARs EXPIRÉS :
  • 261800Z 10008KT 1100 R17/P2000 R35/1500N -RA BKN001 BKN002 14/14 Q1010 TEMPO 0300
  • 261730Z 10006KT 2000 BR SCT001 BKN002 14/14 Q1010 TEMPO 0300
  • 261700Z 10005KT 1100 R17/2000N R35/P2000 -RA BKN001 BKN002 14/14 Q1010 TEMPO 0300
  • 261630Z 14005KT 0600 R17/1000N R35/0700N FG BKN001 BKN002 14/14 Q1011 TEMPO 0300
  • 261600Z 16007KT 0900 R17/1800N R35/1800D FG BKN001 BKN002 14/14 Q1011 TEMPO 0300

TAF TAF EICK
Valide du 26 à 18h jusqu'au 27 à 18h UTC


261700Z 2618/2718 17009KT 2000 -RA BR BKN002
TEMPO 2618/2701 0300 FG RA OVC001
BECMG 2620/2622 VRB03KT
BECMG 2701/2703 32012KT 9999 BKN008
BECMG 2707/2709 29014G26KT
BECMG 2710/2712 32015KT NSW SCT012 BKN020
BECMG 2716/2718 32008KT
Pas de NOTAMs connus pour ce terrain.
1 SIGMET publié pour la FIR Shannon (EISN) :
 
Orages noyés dans la masse
EISN SIGMET 06 VALID 261530/261900 EINN
EISN SHANNON FIR/UIR EMBD TS FCST WI N5300 W00900 - N5300 W01100 - N5430 W01100 - N5445 W00900 - N5520 W00800 - N5425 W00810 - N5300 W00900 TOP FL350 MOV N AT 25KT NC=



MET'MAP, la Météo Aéronautique d'un coup d'oeil ! - Copyright ORBIFLY Décembre 2007 - Disclaimer

ORBIFLY MET'MAP TEAM :

Programmation & Développement : Alexandra Zaïnal
Conception & Développement : Baudouin d'Aumeries
Co-Programmation & Développement : Marc-Olivier Méhu
Soutien technique & logistique : Manuel Goepfert

Contact : metmap@orbifly.com




SOURCES & CREDITS :

   NOAA